createdAt,value
2022-12-17T00:01:54.757Z,4.73
2022-12-17T00:04:41.508Z,4.82
2022-12-17T00:07:28.440Z,4.70
2022-12-17T00:10:15.450Z,4.69
2022-12-17T00:13:05.753Z,4.49
2022-12-17T00:15:53.653Z,4.74
2022-12-17T00:18:40.811Z,5.01
2022-12-17T00:21:28.235Z,5.19
2022-12-17T00:24:15.333Z,4.85
2022-12-17T00:27:02.272Z,5.02
2022-12-17T00:29:49.175Z,4.92
2022-12-17T00:32:35.995Z,4.83
2022-12-17T00:35:23.408Z,4.77
2022-12-17T00:38:10.678Z,4.72
2022-12-17T00:40:57.632Z,4.55
2022-12-17T00:43:44.372Z,4.76
2022-12-17T00:46:31.486Z,4.74
2022-12-17T00:49:18.637Z,4.85
2022-12-17T00:52:05.394Z,5.04
2022-12-17T00:54:52.190Z,4.80
2022-12-17T00:57:39.242Z,4.95
2022-12-17T01:00:27.027Z,5.16
2022-12-17T01:03:27.249Z,5.25
2022-12-17T01:06:14.728Z,5.24
2022-12-17T01:09:01.683Z,5.36
2022-12-17T01:11:48.965Z,5.29
2022-12-17T01:14:35.897Z,5.44
2022-12-17T01:17:22.701Z,5.53
2022-12-17T01:20:09.657Z,5.51
2022-12-17T01:22:56.664Z,5.33
2022-12-17T01:25:43.485Z,5.38
2022-12-17T01:28:30.235Z,5.42
2022-12-17T01:31:17.163Z,5.28
2022-12-17T01:34:04.991Z,5.09
2022-12-17T01:36:51.949Z,4.82
2022-12-17T01:39:38.739Z,4.72
2022-12-17T01:42:31.824Z,4.79
2022-12-17T01:45:18.606Z,4.92
2022-12-17T01:48:10.921Z,4.97
2022-12-17T01:51:01.750Z,5.14
2022-12-17T01:53:54.112Z,5.14
2022-12-17T01:56:44.852Z,5.21
2022-12-17T01:59:35.259Z,5.29
2022-12-17T02:02:22.337Z,5.04
2022-12-17T02:05:09.775Z,5.06
2022-12-17T02:08:04.347Z,5.10
2022-12-17T02:10:58.190Z,5.23
2022-12-17T02:13:55.709Z,5.31
2022-12-17T02:16:53.852Z,5.36
2022-12-17T02:20:09.895Z,5.06
2022-12-17T02:23:35.175Z,4.84
2022-12-17T02:26:39.434Z,5.00
2022-12-17T02:29:27.184Z,5.13
2022-12-17T02:32:14.508Z,5.08
2022-12-17T02:35:06.513Z,4.79
2022-12-17T02:37:53.309Z,4.64
2022-12-17T02:40:42.188Z,4.79
2022-12-17T02:43:30.037Z,4.94
2022-12-17T02:46:17.591Z,5.04
2022-12-17T02:49:04.774Z,5.11
2022-12-17T02:51:52.215Z,5.09
2022-12-17T02:54:39.091Z,4.99
2022-12-17T02:57:25.905Z,4.72
2022-12-17T03:00:12.786Z,4.50
2022-12-17T03:03:00.046Z,4.30
2022-12-17T03:05:47.123Z,4.54
2022-12-17T03:08:34.330Z,4.75
2022-12-17T03:11:21.169Z,4.75
2022-12-17T03:14:08.085Z,4.82
2022-12-17T03:16:55.010Z,4.88
2022-12-17T03:19:42.344Z,4.85
2022-12-17T03:22:29.725Z,4.86
2022-12-17T03:25:16.936Z,4.87
2022-12-17T03:28:03.796Z,4.96
2022-12-17T03:30:50.706Z,4.93
2022-12-17T03:33:37.746Z,5.00
2022-12-17T03:36:25.374Z,5.10
2022-12-17T03:39:12.818Z,5.08
2022-12-17T03:42:10.600Z,4.98
2022-12-17T03:44:57.426Z,4.93
2022-12-17T03:47:44.882Z,4.66
2022-12-17T03:50:31.940Z,4.72
2022-12-17T03:53:22.677Z,4.44
2022-12-17T03:56:09.577Z,4.37
2022-12-17T03:58:56.682Z,4.14
2022-12-17T04:01:44.166Z,4.06
2022-12-17T04:04:31.339Z,4.32
2022-12-17T04:07:18.181Z,4.45
2022-12-17T04:10:05.013Z,4.30
2022-12-17T04:12:51.816Z,4.49
2022-12-17T04:15:38.810Z,4.42
2022-12-17T04:18:25.655Z,4.25
2022-12-17T04:21:12.520Z,3.91
2022-12-17T04:23:59.505Z,3.98
2022-12-17T04:26:46.276Z,3.99
2022-12-17T04:29:32.891Z,4.08
2022-12-17T04:32:39.579Z,4.31
2022-12-17T04:35:26.411Z,4.25
2022-12-17T04:38:13.256Z,4.29
2022-12-17T04:41:00.168Z,4.41
2022-12-17T04:43:47.019Z,4.41
2022-12-17T04:46:34.061Z,4.34
2022-12-17T04:49:21.155Z,4.56
2022-12-17T04:52:07.936Z,4.55
2022-12-17T04:54:54.927Z,4.70
2022-12-17T04:57:41.585Z,4.60
2022-12-17T05:00:28.853Z,4.60
2022-12-17T05:03:23.221Z,4.62
2022-12-17T05:06:10.189Z,4.51
2022-12-17T05:08:57.406Z,4.47
2022-12-17T05:11:44.150Z,4.53
2022-12-17T05:14:31.040Z,4.43
2022-12-17T05:17:18.438Z,4.55
2022-12-17T05:20:05.252Z,4.49
2022-12-17T05:22:52.032Z,4.50
2022-12-17T05:25:38.915Z,4.49
2022-12-17T05:28:25.746Z,4.46
2022-12-17T05:31:14.416Z,4.51
2022-12-17T05:34:01.453Z,4.64
2022-12-17T05:36:48.221Z,4.61
2022-12-17T05:39:34.946Z,4.64
2022-12-17T05:42:22.425Z,4.66
2022-12-17T05:45:09.252Z,4.56
2022-12-17T05:47:56.006Z,4.64
2022-12-17T05:50:42.839Z,4.50
2022-12-17T05:53:29.712Z,4.55
2022-12-17T05:56:16.431Z,4.49
2022-12-17T05:59:03.402Z,4.44
2022-12-17T06:01:50.363Z,4.29
2022-12-17T06:04:37.477Z,4.49
2022-12-17T06:07:24.245Z,4.59
2022-12-17T06:10:11.059Z,4.82
2022-12-17T06:12:57.927Z,4.77
2022-12-17T06:15:45.049Z,4.66
2022-12-17T06:18:31.981Z,4.35
2022-12-17T06:21:18.721Z,4.32
2022-12-17T06:24:05.519Z,4.49
2022-12-17T06:26:52.362Z,4.36
2022-12-17T06:29:39.201Z,4.40
2022-12-17T06:32:25.918Z,4.47
2022-12-17T06:35:13.866Z,4.34
2022-12-17T06:38:00.745Z,4.44
2022-12-17T06:40:48.077Z,4.44
2022-12-17T06:43:35.710Z,4.49
2022-12-17T06:46:22.832Z,4.54
2022-12-17T06:49:11.186Z,4.49
2022-12-17T06:51:57.887Z,4.49
2022-12-17T06:54:44.726Z,4.43
2022-12-17T06:57:34.328Z,4.46
2022-12-17T07:00:25.340Z,4.48
2022-12-17T07:03:16.439Z,4.49
2022-12-17T07:06:03.515Z,4.43
2022-12-17T07:08:50.247Z,4.36
2022-12-17T07:11:37.041Z,4.30
2022-12-17T07:14:24.237Z,4.33
2022-12-17T07:17:11.220Z,4.13
2022-12-17T07:19:58.425Z,4.08
2022-12-17T07:22:45.544Z,3.63
2022-12-17T07:25:33.804Z,3.79
2022-12-17T07:28:20.787Z,3.96
2022-12-17T07:31:07.709Z,3.90
2022-12-17T07:33:54.629Z,4.08
2022-12-17T07:36:44.409Z,4.28
2022-12-17T07:39:31.359Z,4.08
2022-12-17T07:42:18.210Z,4.08
2022-12-17T07:45:05.476Z,4.32
2022-12-17T07:47:52.307Z,4.05
2022-12-17T07:50:49.958Z,3.84
2022-12-17T07:53:37.108Z,4.02
2022-12-17T07:56:24.715Z,4.01
2022-12-17T07:59:11.568Z,3.93
2022-12-17T08:01:58.812Z,4.06
2022-12-17T08:04:45.985Z,3.91
2022-12-17T08:07:32.807Z,3.82
2022-12-17T08:10:19.529Z,3.78
2022-12-17T08:13:20.090Z,4.08
2022-12-17T08:16:07.888Z,3.87
2022-12-17T08:18:55.143Z,3.84
2022-12-17T08:21:42.497Z,3.94
2022-12-17T08:24:29.387Z,3.79
2022-12-17T08:27:16.689Z,3.87
2022-12-17T08:30:03.418Z,4.10
2022-12-17T08:32:50.523Z,3.96
2022-12-17T08:35:37.636Z,4.18
2022-12-17T08:38:25.503Z,4.15
2022-12-17T08:41:12.858Z,4.15
2022-12-17T08:43:59.613Z,4.16
2022-12-17T08:46:46.369Z,4.18
2022-12-17T08:49:33.157Z,4.09
2022-12-17T08:52:19.907Z,4.18
2022-12-17T08:55:06.639Z,4.27
2022-12-17T08:57:53.959Z,4.25
2022-12-17T09:00:41.034Z,4.27
2022-12-17T09:03:27.977Z,4.40
2022-12-17T09:06:15.036Z,4.49
2022-12-17T09:09:01.831Z,4.41
2022-12-17T09:11:48.671Z,4.27
2022-12-17T09:14:35.474Z,4.13
2022-12-17T09:17:22.400Z,4.11
2022-12-17T09:20:09.136Z,3.90
2022-12-17T09:22:56.375Z,4.01
2022-12-17T09:25:43.838Z,4.14
2022-12-17T09:28:30.775Z,4.05
2022-12-17T09:31:19.096Z,4.16
2022-12-17T09:34:06.234Z,4.04
2022-12-17T09:36:53.192Z,4.36
2022-12-17T09:39:40.352Z,4.43
2022-12-17T09:42:39.514Z,4.27
2022-12-17T09:45:34.042Z,4.24
2022-12-17T09:48:44.315Z,4.42
2022-12-17T09:51:46.033Z,4.45
2022-12-17T09:55:10.680Z,4.24
2022-12-17T09:57:57.920Z,4.16
2022-12-17T10:00:47.097Z,4.31
2022-12-17T10:03:37.798Z,4.24
2022-12-17T10:06:47.152Z,4.26
2022-12-17T10:09:37.562Z,4.47
2022-12-17T10:12:36.664Z,4.54
2022-12-17T10:15:25.254Z,4.70
2022-12-17T10:18:12.495Z,4.40
2022-12-17T10:21:13.722Z,4.49
2022-12-17T10:24:01.121Z,4.28
2022-12-17T10:26:51.016Z,4.24
2022-12-17T10:29:47.728Z,4.33
2022-12-17T10:32:35.243Z,4.48
2022-12-17T10:35:42.168Z,4.30
2022-12-17T10:38:40.145Z,3.97
2022-12-17T10:41:45.123Z,3.98
2022-12-17T10:44:42.648Z,3.97
2022-12-17T10:47:38.533Z,4.06
2022-12-17T10:50:34.615Z,4.04
2022-12-17T10:53:23.468Z,4.16
2022-12-17T10:56:15.313Z,4.15
2022-12-17T10:59:08.790Z,4.28
2022-12-17T11:02:00.829Z,4.38
2022-12-17T11:04:55.773Z,4.50
2022-12-17T11:07:48.235Z,4.33
2022-12-17T11:10:39.992Z,4.48
2022-12-17T11:13:35.022Z,4.51
2022-12-17T11:16:32.974Z,4.35
2022-12-17T11:19:44.017Z,4.54
2022-12-17T11:22:59.641Z,4.17
2022-12-17T11:25:57.731Z,3.97
2022-12-17T11:28:48.541Z,4.27
2022-12-17T11:32:13.317Z,4.43
2022-12-17T11:35:19.070Z,4.46
2022-12-17T11:38:09.122Z,4.52
2022-12-17T11:40:59.239Z,4.53
2022-12-17T11:43:57.790Z,4.68
2022-12-17T11:47:17.682Z,4.91
2022-12-17T11:50:11.965Z,4.85
2022-12-17T11:53:12.057Z,4.90
2022-12-17T11:56:16.241Z,4.83
2022-12-17T11:59:10.931Z,4.44
2022-12-17T12:02:11.903Z,4.38
2022-12-17T12:05:31.841Z,4.50
2022-12-17T12:08:37.644Z,4.43
2022-12-17T12:11:38.453Z,4.46
2022-12-17T12:14:57.148Z,4.59
2022-12-17T12:18:12.513Z,4.61
2022-12-17T12:21:08.578Z,4.62
2022-12-17T12:24:09.627Z,4.36
2022-12-17T12:27:19.398Z,4.50
2022-12-17T12:30:34.859Z,4.57
2022-12-17T12:34:12.195Z,4.48
2022-12-17T12:37:00.966Z,4.37
2022-12-17T12:40:06.008Z,4.38
2022-12-17T12:43:06.237Z,4.26
2022-12-17T12:46:11.472Z,4.05
2022-12-17T12:49:07.980Z,3.82
2022-12-17T12:51:56.479Z,3.69
2022-12-17T12:55:05.593Z,3.91
2022-12-17T12:57:59.782Z,4.04
2022-12-17T13:00:58.053Z,4.13
2022-12-17T13:03:56.431Z,3.79
2022-12-17T13:07:04.173Z,3.54
2022-12-17T13:09:46.853Z,3.64
2022-12-17T13:12:45.271Z,3.55
2022-12-17T13:15:41.686Z,3.33
2022-12-17T13:18:39.435Z,3.56
2022-12-17T13:21:16.955Z,3.44
2022-12-17T13:23:45.449Z,3.49
2022-12-17T13:26:42.181Z,3.78
2022-12-17T13:29:12.924Z,3.82
2022-12-17T13:31:41.585Z,3.74
2022-12-17T13:34:27.157Z,3.84
2022-12-17T13:37:38.153Z,3.57
2022-12-17T13:40:34.718Z,3.56
2022-12-17T13:43:03.580Z,3.47
2022-12-17T13:45:36.878Z,3.46
2022-12-17T13:48:05.765Z,3.40
2022-12-17T13:50:35.866Z,3.48
2022-12-17T13:53:13.221Z,3.82
2022-12-17T13:55:50.373Z,3.99
2022-12-17T13:58:27.447Z,3.83
2022-12-17T14:01:11.020Z,3.45
2022-12-17T14:04:05.655Z,3.26
2022-12-17T14:06:37.448Z,2.99
2022-12-17T14:09:06.624Z,2.86
2022-12-17T14:11:57.062Z,2.84
2022-12-17T14:14:35.323Z,2.89
2022-12-17T14:17:04.407Z,2.76
2022-12-17T14:19:34.150Z,2.77
2022-12-17T14:22:02.931Z,3.08
2022-12-17T14:24:31.764Z,3.26
2022-12-17T14:27:00.872Z,3.21
2022-12-17T14:29:31.429Z,3.33
2022-12-17T14:32:03.951Z,3.50
2022-12-17T14:34:43.059Z,3.57
2022-12-17T14:37:23.745Z,3.65
2022-12-17T14:39:57.973Z,3.68
2022-12-17T14:42:26.634Z,3.60
2022-12-17T14:45:21.697Z,3.53
2022-12-17T14:48:01.178Z,3.48
2022-12-17T14:50:35.883Z,3.21
2022-12-17T14:53:24.903Z,3.10
2022-12-17T14:55:55.940Z,2.99
2022-12-17T14:58:26.402Z,2.82
2022-12-17T15:01:04.307Z,2.85
2022-12-17T15:03:37.615Z,2.87
2022-12-17T15:06:13.009Z,2.66
2022-12-17T15:08:44.402Z,2.79
2022-12-17T15:11:16.203Z,3.02
2022-12-17T15:13:44.855Z,3.23
2022-12-17T15:16:13.533Z,3.27
2022-12-17T15:18:42.232Z,3.36
2022-12-17T15:21:11.714Z,3.31
2022-12-17T15:23:44.506Z,3.44
2022-12-17T15:26:17.437Z,3.62
2022-12-17T15:28:46.299Z,3.39
2022-12-17T15:31:19.533Z,3.27
2022-12-17T15:33:51.575Z,3.26
2022-12-17T15:36:20.006Z,2.69
2022-12-17T15:38:48.418Z,2.98
2022-12-17T15:41:35.552Z,3.06
2022-12-17T15:44:04.068Z,3.21
2022-12-17T15:46:33.707Z,3.32
2022-12-17T15:49:03.715Z,3.36
2022-12-17T15:51:32.216Z,3.37
2022-12-17T15:54:00.732Z,3.44
2022-12-17T15:56:29.149Z,3.33
2022-12-17T15:58:58.528Z,3.23
2022-12-17T16:01:27.075Z,3.26
2022-12-17T16:03:55.710Z,3.25
2022-12-17T16:06:24.287Z,3.37
2022-12-17T16:08:52.804Z,3.08
2022-12-17T16:11:21.216Z,2.57
2022-12-17T16:13:55.105Z,2.43
2022-12-17T16:16:24.162Z,2.58
2022-12-17T16:18:52.913Z,2.75
2022-12-17T16:21:21.381Z,2.87
2022-12-17T16:23:49.840Z,2.92
2022-12-17T16:26:18.241Z,2.98
2022-12-17T16:28:46.762Z,3.21
2022-12-17T16:31:15.816Z,3.15
2022-12-17T16:33:47.348Z,3.09
2022-12-17T16:36:20.967Z,3.04
2022-12-17T16:38:55.050Z,2.65
2022-12-17T16:41:24.398Z,2.29
2022-12-17T16:43:52.845Z,2.43
2022-12-17T16:46:34.022Z,2.85
2022-12-17T16:49:08.852Z,3.02
2022-12-17T16:51:38.966Z,2.82
2022-12-17T16:54:13.634Z,2.68
2022-12-17T16:56:42.982Z,2.22
2022-12-17T16:59:13.828Z,2.38
2022-12-17T17:01:46.234Z,2.35
2022-12-17T17:04:16.671Z,2.46
2022-12-17T17:06:54.062Z,2.63
2022-12-17T17:09:23.554Z,2.36
2022-12-17T17:11:55.408Z,1.96
2022-12-17T17:14:24.116Z,2.16
2022-12-17T17:16:53.035Z,2.10
2022-12-17T17:19:21.493Z,1.95
2022-12-17T17:21:54.429Z,2.18
2022-12-17T17:24:25.765Z,2.32
2022-12-17T17:26:55.478Z,2.19
2022-12-17T17:29:25.451Z,1.92
2022-12-17T17:32:09.807Z,1.94
2022-12-17T17:34:40.085Z,2.00
2022-12-17T17:37:08.651Z,2.29
2022-12-17T17:39:37.099Z,2.24
2022-12-17T17:42:05.760Z,2.14
2022-12-17T17:44:34.569Z,1.97
2022-12-17T17:47:03.503Z,1.79
2022-12-17T17:49:31.973Z,1.97
2022-12-17T17:52:15.630Z,2.03
2022-12-17T17:54:44.041Z,1.81
2022-12-17T17:57:12.542Z,1.91
2022-12-17T17:59:41.084Z,2.01
2022-12-17T18:02:11.159Z,1.97
2022-12-17T18:04:40.142Z,2.14
2022-12-17T18:07:25.943Z,2.06
2022-12-17T18:09:55.600Z,2.08
2022-12-17T18:12:42.856Z,1.97
2022-12-17T18:15:14.795Z,2.14
2022-12-17T18:17:47.263Z,2.09
2022-12-17T18:20:16.608Z,1.95
2022-12-17T18:22:46.111Z,2.05
2022-12-17T18:25:16.843Z,2.03
2022-12-17T18:27:45.386Z,2.09
2022-12-17T18:30:16.127Z,2.14
2022-12-17T18:32:44.931Z,2.26
2022-12-17T18:35:13.566Z,2.27
2022-12-17T18:37:42.055Z,2.10
2022-12-17T18:40:10.826Z,2.08
2022-12-17T18:42:57.990Z,2.01
2022-12-17T18:45:26.432Z,1.86
2022-12-17T18:47:54.967Z,1.76
2022-12-17T18:50:23.439Z,1.76
2022-12-17T18:52:53.079Z,1.73
2022-12-17T18:55:21.535Z,1.55
2022-12-17T18:57:49.890Z,1.36
2022-12-17T19:00:18.552Z,1.51
2022-12-17T19:02:47.075Z,1.64
2022-12-17T19:05:15.619Z,1.63
2022-12-17T19:07:44.064Z,1.65
2022-12-17T19:10:12.478Z,1.68
2022-12-17T19:12:40.850Z,1.51
2022-12-17T19:15:09.673Z,1.51
2022-12-17T19:17:38.284Z,1.65
2022-12-17T19:20:07.288Z,1.71
2022-12-17T19:22:35.685Z,1.48
2022-12-17T19:25:04.363Z,1.45
2022-12-17T19:27:32.905Z,1.59
2022-12-17T19:30:01.364Z,1.92
2022-12-17T19:32:29.789Z,2.08
2022-12-17T19:34:58.266Z,2.02
2022-12-17T19:37:26.808Z,1.98
2022-12-17T19:39:55.194Z,1.82
2022-12-17T19:42:31.963Z,1.81
2022-12-17T19:45:05.870Z,1.97
2022-12-17T19:47:35.476Z,1.90
2022-12-17T19:50:04.352Z,1.90
2022-12-17T19:52:32.800Z,1.87
2022-12-17T19:55:01.889Z,1.93
2022-12-17T19:57:30.406Z,2.05
2022-12-17T19:59:58.880Z,2.04
2022-12-17T20:02:32.428Z,2.25
2022-12-17T20:05:01.183Z,2.12
2022-12-17T20:07:30.643Z,2.11
2022-12-17T20:09:59.134Z,1.94
2022-12-17T20:12:27.746Z,1.73
2022-12-17T20:14:56.141Z,1.61
2022-12-17T20:17:26.019Z,1.68
2022-12-17T20:19:56.333Z,1.70
2022-12-17T20:22:26.393Z,1.72
2022-12-17T20:24:54.938Z,1.78
2022-12-17T20:27:23.528Z,1.72
2022-12-17T20:29:52.851Z,1.53
2022-12-17T20:32:21.465Z,1.61
2022-12-17T20:34:49.938Z,1.57
2022-12-17T20:37:18.475Z,1.47
2022-12-17T20:39:46.940Z,1.42
2022-12-17T20:42:17.641Z,1.32
2022-12-17T20:44:51.545Z,1.35
2022-12-17T20:47:21.834Z,1.34
2022-12-17T20:49:50.298Z,1.44
2022-12-17T20:52:19.268Z,1.55
2022-12-17T20:54:49.213Z,1.46
2022-12-17T20:57:17.648Z,1.42
2022-12-17T20:59:46.060Z,1.33
2022-12-17T21:02:14.681Z,1.27
2022-12-17T21:04:43.167Z,1.42
2022-12-17T21:07:12.023Z,1.79
2022-12-17T21:09:40.699Z,1.79
2022-12-17T21:12:09.731Z,1.66
2022-12-17T21:14:38.115Z,1.47
2022-12-17T21:17:07.743Z,1.39
2022-12-17T21:19:36.358Z,1.29
2022-12-17T21:22:05.560Z,1.28
2022-12-17T21:24:34.009Z,1.25
2022-12-17T21:27:02.405Z,1.33
2022-12-17T21:29:30.800Z,1.36
2022-12-17T21:31:59.227Z,1.21
2022-12-17T21:34:29.219Z,1.14
2022-12-17T21:36:57.716Z,1.33
2022-12-17T21:39:26.108Z,1.43
2022-12-17T21:42:13.191Z,1.59
2022-12-17T21:44:41.651Z,1.66
2022-12-17T21:47:10.339Z,1.51
2022-12-17T21:49:38.818Z,1.44
2022-12-17T21:52:07.455Z,1.30
2022-12-17T21:54:37.903Z,1.35
2022-12-17T21:57:06.813Z,1.23
2022-12-17T21:59:35.493Z,1.05
2022-12-17T22:02:04.078Z,1.03
2022-12-17T22:04:32.686Z,1.10
2022-12-17T22:07:06.175Z,0.89
2022-12-17T22:09:47.790Z,0.94
2022-12-17T22:12:37.755Z,0.89
2022-12-17T22:15:08.561Z,1.05
2022-12-17T22:17:38.082Z,1.11
2022-12-17T22:20:07.146Z,1.07
2022-12-17T22:22:35.668Z,1.11
2022-12-17T22:25:09.001Z,1.13
2022-12-17T22:27:40.685Z,1.11
2022-12-17T22:30:33.321Z,1.16
2022-12-17T22:33:06.887Z,1.44
2022-12-17T22:38:04.744Z,1.21
2022-12-17T22:43:13.481Z,1.04
2022-12-17T22:44:34.403Z,1.13
2022-12-17T22:44:46.141Z,1.13
2022-12-17T22:47:16.973Z,0.99
2022-12-17T22:49:45.359Z,1.07
2022-12-17T22:52:14.110Z,0.75
2022-12-17T22:54:44.885Z,0.61
2022-12-17T22:57:35.158Z,0.57
2022-12-17T23:00:02.336Z,0.48
2022-12-17T23:02:30.817Z,0.45
2022-12-17T23:04:59.357Z,0.48
2022-12-17T23:07:31.772Z,0.39
2022-12-17T23:10:00.579Z,0.45
2022-12-17T23:12:47.649Z,0.50
2022-12-17T23:15:17.129Z,0.36
2022-12-17T23:17:45.779Z,0.18
2022-12-17T23:20:15.347Z,0.24
2022-12-17T23:22:44.044Z,0.17
2022-12-17T23:25:13.379Z,0.18
2022-12-17T23:27:45.530Z,0.17
2022-12-17T23:30:14.653Z,0.17
2022-12-17T23:32:43.604Z,0.06
2022-12-17T23:35:13.314Z,0.09
2022-12-17T23:37:42.276Z,0.12
2022-12-17T23:40:12.460Z,0.21
2022-12-17T23:42:41.158Z,0.32
2022-12-17T23:45:11.967Z,0.35
2022-12-17T23:47:41.087Z,0.43
2022-12-17T23:50:11.459Z,0.39
2022-12-17T23:52:40.047Z,0.45
2022-12-17T23:55:08.858Z,0.48
2022-12-17T23:57:37.754Z,0.40
